createdAt,value
2017-09-22T00:02:09.568Z,99430
2017-09-22T00:04:37.652Z,99426
2017-09-22T00:07:05.783Z,99428
2017-09-22T00:09:33.864Z,99440
2017-09-22T00:12:01.943Z,99437
2017-09-22T00:14:30.033Z,99435
2017-09-22T00:16:58.104Z,99430
2017-09-22T00:19:26.467Z,99426
2017-09-22T00:21:54.546Z,99435
2017-09-22T00:24:22.651Z,99432
2017-09-22T00:26:51.515Z,99432
2017-09-22T00:29:19.576Z,99417
2017-09-22T00:31:47.651Z,99426
2017-09-22T00:34:15.736Z,99422
2017-09-22T00:36:43.818Z,99414
2017-09-22T00:39:11.892Z,99423
2017-09-22T00:41:39.976Z,99426
2017-09-22T00:44:08.807Z,99422
2017-09-22T00:46:36.892Z,99428
2017-09-22T00:49:04.963Z,99427
2017-09-22T00:51:33.047Z,99416
2017-09-22T00:54:01.135Z,99421
2017-09-22T00:56:29.207Z,99426
2017-09-22T00:58:57.383Z,99418
2017-09-22T01:01:25.460Z,99408
2017-09-22T01:03:53.530Z,99412
2017-09-22T01:06:21.601Z,99406
2017-09-22T01:08:49.692Z,99410
2017-09-22T01:11:18.540Z,99405
2017-09-22T01:13:46.628Z,99416
2017-09-22T01:16:14.708Z,99399
2017-09-22T01:18:42.783Z,99403
2017-09-22T01:21:10.876Z,99408
2017-09-22T01:23:39.720Z,99410
2017-09-22T01:26:07.804Z,99400
2017-09-22T01:28:35.876Z,99399
2017-09-22T01:31:03.960Z,99404
2017-09-22T01:33:32.036Z,99396
2017-09-22T01:36:00.168Z,99403
2017-09-22T01:38:28.239Z,99402
2017-09-22T01:40:56.334Z,99405
2017-09-22T01:43:24.403Z,99398
2017-09-22T01:45:52.501Z,99398
2017-09-22T01:48:20.570Z,99399
2017-09-22T01:50:48.643Z,99411
2017-09-22T01:53:16.727Z,99402
2017-09-22T01:55:44.791Z,99408
2017-09-22T01:58:12.933Z,99405
2017-09-22T02:00:41.000Z,99408
2017-09-22T02:03:09.836Z,99391
2017-09-22T02:05:37.912Z,99392
2017-09-22T02:08:05.991Z,99401
2017-09-22T02:10:34.824Z,99394
2017-09-22T02:13:03.663Z,99399
2017-09-22T02:15:31.747Z,99393
2017-09-22T02:18:00.600Z,99378
2017-09-22T02:20:28.671Z,99396
2017-09-22T02:22:56.760Z,99397
2017-09-22T02:25:24.838Z,99397
2017-09-22T02:27:52.927Z,99396
2017-09-22T02:30:21.771Z,99395
2017-09-22T02:32:49.868Z,99395
2017-09-22T02:35:17.963Z,99387
2017-09-22T02:37:46.804Z,99386
2017-09-22T02:40:14.892Z,99388
2017-09-22T02:42:42.972Z,99388
2017-09-22T02:45:11.061Z,99396
2017-09-22T02:47:39.131Z,99393
2017-09-22T02:50:07.223Z,99395
2017-09-22T02:52:36.060Z,99394
2017-09-22T02:55:04.139Z,99396
2017-09-22T02:57:32.210Z,99398
2017-09-22T03:00:00.296Z,99410
2017-09-22T03:02:28.369Z,99403
2017-09-22T03:04:56.442Z,99405
2017-09-22T03:07:24.524Z,99408
2017-09-22T03:09:52.604Z,99398
2017-09-22T03:12:20.702Z,99408
2017-09-22T03:14:48.855Z,99406
2017-09-22T03:17:16.924Z,99406
2017-09-22T03:19:44.995Z,99403
2017-09-22T03:22:13.067Z,99408
2017-09-22T03:24:41.145Z,99402
2017-09-22T03:27:09.203Z,99400
2017-09-22T03:29:37.282Z,99404
2017-09-22T03:32:05.348Z,99410
2017-09-22T03:34:33.420Z,99409
2017-09-22T03:37:01.496Z,99403
2017-09-22T03:39:29.564Z,99397
2017-09-22T03:41:57.665Z,99403
2017-09-22T03:44:26.523Z,99408
2017-09-22T03:46:54.598Z,99414
2017-09-22T03:49:22.684Z,99401
2017-09-22T03:51:50.755Z,99399
2017-09-22T03:54:19.595Z,99397
2017-09-22T03:56:47.713Z,99397
2017-09-22T03:59:15.768Z,99400
2017-09-22T04:01:43.852Z,99399
2017-09-22T04:04:11.923Z,99404
2017-09-22T04:06:40.016Z,99402
2017-09-22T04:09:08.859Z,99399
2017-09-22T04:11:36.943Z,99395
2017-09-22T04:14:05.023Z,99395
2017-09-22T04:16:33.106Z,99392
2017-09-22T04:19:01.179Z,99391
2017-09-22T04:21:29.268Z,99388
2017-09-22T04:23:57.337Z,99388
2017-09-22T04:26:25.411Z,99387
2017-09-22T04:28:54.251Z,99394
2017-09-22T04:31:22.323Z,99392
2017-09-22T04:33:50.391Z,99390
2017-09-22T04:36:18.477Z,99394
2017-09-22T04:38:46.544Z,99399
2017-09-22T04:41:14.628Z,99401
2017-09-22T04:43:42.704Z,99392
2017-09-22T04:46:11.000Z,99406
2017-09-22T04:48:39.072Z,99398
2017-09-22T04:51:07.156Z,99398
2017-09-22T04:53:35.227Z,99400
2017-09-22T04:56:03.312Z,99398
2017-09-22T04:58:32.160Z,99406
2017-09-22T05:01:00.240Z,99407
2017-09-22T05:03:28.324Z,99412
2017-09-22T05:05:56.453Z,99405
2017-09-22T05:08:24.511Z,99407
2017-09-22T05:10:52.588Z,99400
2017-09-22T05:13:20.656Z,99395
2017-09-22T05:15:48.750Z,99410
2017-09-22T05:18:17.598Z,99409
2017-09-22T05:20:46.444Z,99413
2017-09-22T05:23:14.530Z,99400
2017-09-22T05:25:42.611Z,99399
2017-09-22T05:28:10.691Z,99400
2017-09-22T05:30:38.775Z,99402
2017-09-22T05:33:06.855Z,99409
2017-09-22T05:35:35.716Z,99406
2017-09-22T05:38:03.817Z,99398
2017-09-22T05:40:32.733Z,99410
2017-09-22T05:43:01.590Z,99407
2017-09-22T05:45:29.799Z,99403
2017-09-22T05:47:57.875Z,99406
2017-09-22T05:50:25.960Z,99418
2017-09-22T05:52:54.054Z,99414
2017-09-22T05:55:22.134Z,99420
2017-09-22T05:57:50.300Z,99425
2017-09-22T06:00:18.364Z,99427
2017-09-22T06:02:46.447Z,99430
2017-09-22T06:05:14.518Z,99431
2017-09-22T06:07:42.611Z,99430
2017-09-22T06:10:10.691Z,99428
2017-09-22T06:12:38.796Z,99423
2017-09-22T06:15:06.872Z,99432
2017-09-22T06:17:34.963Z,99423
2017-09-22T06:20:03.036Z,99421
2017-09-22T06:22:31.886Z,99432
2017-09-22T06:25:00.739Z,99423
2017-09-22T06:27:28.834Z,99429
2017-09-22T06:29:56.905Z,99429
2017-09-22T06:32:24.996Z,99441
2017-09-22T06:34:53.866Z,99429
2017-09-22T06:37:21.949Z,99426
2017-09-22T06:39:50.797Z,99437
2017-09-22T06:42:18.880Z,99431
2017-09-22T06:44:46.994Z,99421
2017-09-22T06:47:15.043Z,99415
2017-09-22T06:49:43.124Z,99422
2017-09-22T06:52:11.200Z,99417
2017-09-22T06:54:39.280Z,99419
2017-09-22T06:57:07.384Z,99417
2017-09-22T06:59:35.457Z,99412
2017-09-22T07:02:03.547Z,99410
2017-09-22T07:04:31.620Z,99416
2017-09-22T07:06:59.712Z,99423
2017-09-22T07:09:27.783Z,99428
2017-09-22T07:11:55.872Z,99425
2017-09-22T07:14:23.942Z,99431
2017-09-22T07:16:52.040Z,99430
2017-09-22T07:19:20.884Z,99424
2017-09-22T07:21:48.962Z,99409
2017-09-22T07:24:17.188Z,99421
2017-09-22T07:26:46.036Z,99421
2017-09-22T07:29:14.116Z,99419
2017-09-22T07:31:42.228Z,99424
2017-09-22T07:34:10.281Z,99428
2017-09-22T07:36:39.142Z,99427
2017-09-22T07:39:07.221Z,99443
2017-09-22T07:41:35.305Z,99437
2017-09-22T07:44:03.383Z,99439
2017-09-22T07:46:31.463Z,99435
2017-09-22T07:48:59.536Z,99442
2017-09-22T07:51:28.395Z,99443
2017-09-22T07:53:56.475Z,99444
2017-09-22T07:56:24.563Z,99444
2017-09-22T07:58:52.638Z,99441
2017-09-22T08:01:20.737Z,99445
2017-09-22T08:03:49.581Z,99447
2017-09-22T08:06:17.735Z,99436
2017-09-22T08:08:45.817Z,99445
2017-09-22T08:11:13.911Z,99452
2017-09-22T08:13:41.988Z,99445
2017-09-22T08:16:10.076Z,99446
2017-09-22T08:18:38.932Z,99440
2017-09-22T08:21:07.024Z,99442
2017-09-22T08:23:35.105Z,99449
2017-09-22T08:26:03.210Z,99446
2017-09-22T08:28:31.293Z,99452
2017-09-22T08:30:59.383Z,99458
2017-09-22T08:33:27.467Z,99446
2017-09-22T08:35:55.543Z,99443
2017-09-22T08:38:23.639Z,99451
2017-09-22T08:40:51.712Z,99443
2017-09-22T08:43:19.792Z,99440
2017-09-22T08:45:47.866Z,99450
2017-09-22T08:48:16.723Z,99440
2017-09-22T08:50:44.805Z,99446
2017-09-22T08:53:12.901Z,99437
2017-09-22T08:55:41.764Z,99436
2017-09-22T08:58:09.851Z,99441
2017-09-22T09:00:37.936Z,99440
2017-09-22T09:03:06.797Z,99443
2017-09-22T09:05:34.878Z,99438
2017-09-22T09:08:02.971Z,99440
2017-09-22T09:10:31.828Z,99442
2017-09-22T09:12:59.907Z,99435
2017-09-22T09:15:27.983Z,99432
2017-09-22T09:17:56.076Z,99422
2017-09-22T09:20:24.153Z,99435
2017-09-22T09:22:53.015Z,99439
2017-09-22T09:25:21.099Z,99433
2017-09-22T09:27:49.201Z,99439
2017-09-22T09:30:18.056Z,99442
2017-09-22T09:32:46.151Z,99438
2017-09-22T09:35:14.222Z,99432
2017-09-22T09:37:42.304Z,99437
2017-09-22T09:40:11.161Z,99431
2017-09-22T09:42:39.243Z,99418
2017-09-22T09:45:07.396Z,99415
2017-09-22T09:47:35.484Z,99413
2017-09-22T09:50:03.570Z,99416
2017-09-22T09:52:31.655Z,99420
2017-09-22T09:55:00.504Z,99417
2017-09-22T09:57:28.593Z,99420
2017-09-22T09:59:56.677Z,99418
2017-09-22T10:02:24.804Z,99419
2017-09-22T10:04:52.896Z,99419
2017-09-22T10:07:21.009Z,99421
2017-09-22T10:09:49.088Z,99412
2017-09-22T10:12:17.948Z,99414
2017-09-22T10:14:46.026Z,99407
2017-09-22T10:17:14.110Z,99407
2017-09-22T10:19:42.197Z,99405
2017-09-22T10:22:11.048Z,99406
2017-09-22T10:24:39.365Z,99408
2017-09-22T10:27:08.239Z,99406
2017-09-22T10:29:36.322Z,99394
2017-09-22T10:32:04.397Z,99390
2017-09-22T10:34:32.488Z,99383
2017-09-22T10:37:01.328Z,99389
2017-09-22T10:39:29.422Z,99392
2017-09-22T10:41:57.505Z,99395
2017-09-22T10:44:26.365Z,99388
2017-09-22T10:46:54.435Z,99395
2017-09-22T10:49:22.573Z,99396
2017-09-22T10:51:50.653Z,99392
2017-09-22T10:54:18.731Z,99395
2017-09-22T10:56:46.808Z,99398
2017-09-22T10:59:14.885Z,99399
2017-09-22T11:01:42.977Z,99396
2017-09-22T11:04:11.064Z,99394
2017-09-22T11:06:39.154Z,99389
2017-09-22T11:09:08.008Z,99389
2017-09-22T11:11:36.088Z,99390
2017-09-22T11:14:04.240Z,99387
2017-09-22T11:16:32.354Z,99382
2017-09-22T11:19:00.440Z,99391
2017-09-22T11:21:29.295Z,99386
2017-09-22T11:23:57.385Z,99375
2017-09-22T11:26:25.476Z,99376
2017-09-22T11:28:54.720Z,99381
2017-09-22T11:31:22.073Z,99371
2017-09-22T11:33:49.571Z,99370
2017-09-22T11:36:17.651Z,99368
2017-09-22T11:38:45.725Z,99369
2017-09-22T11:41:13.807Z,99361
2017-09-22T11:43:41.872Z,99375
2017-09-22T11:46:09.970Z,99357
2017-09-22T11:48:38.809Z,99365
2017-09-22T11:51:06.895Z,99363
2017-09-22T11:53:34.967Z,99365
2017-09-22T11:56:03.067Z,99357
2017-09-22T11:58:31.921Z,99357
2017-09-22T12:01:00.016Z,99354
2017-09-22T12:03:28.096Z,99357
2017-09-22T12:05:56.175Z,99358
2017-09-22T12:08:25.023Z,99352
2017-09-22T12:10:53.117Z,99357
2017-09-22T12:13:21.195Z,99350
2017-09-22T12:15:49.266Z,99351
2017-09-22T12:18:17.339Z,99351
2017-09-22T12:20:45.423Z,99347
2017-09-22T12:23:13.504Z,99351
2017-09-22T12:25:42.355Z,99340
2017-09-22T12:28:10.444Z,99342
2017-09-22T12:30:38.535Z,99338
2017-09-22T12:33:07.382Z,99334
2017-09-22T12:35:35.469Z,99339
2017-09-22T12:38:03.548Z,99330
2017-09-22T12:40:31.635Z,99333
2017-09-22T12:42:59.715Z,99332
2017-09-22T12:45:28.560Z,99336
2017-09-22T12:47:56.640Z,99325
2017-09-22T12:50:24.720Z,99328
2017-09-22T12:52:52.815Z,99330
2017-09-22T12:55:20.892Z,99325
2017-09-22T12:57:48.976Z,99326
2017-09-22T13:00:17.825Z,99321
2017-09-22T13:02:45.907Z,99326
2017-09-22T13:05:13.988Z,99325
2017-09-22T13:07:42.081Z,99326
2017-09-22T13:10:10.936Z,99322
2017-09-22T13:12:39.021Z,99323
2017-09-22T13:15:08.125Z,99316
2017-09-22T13:17:36.217Z,99328
2017-09-22T13:20:05.079Z,99327
2017-09-22T13:22:33.156Z,99332
2017-09-22T13:25:01.224Z,99333
2017-09-22T13:27:29.380Z,99330
2017-09-22T13:29:57.465Z,99326
2017-09-22T13:32:25.548Z,99328
2017-09-22T13:34:53.615Z,99326
2017-09-22T13:37:21.700Z,99338
2017-09-22T13:39:49.770Z,99335
2017-09-22T13:42:17.861Z,99333
2017-09-22T13:44:46.712Z,99330
2017-09-22T13:47:14.800Z,99326
2017-09-22T13:49:42.880Z,99327
2017-09-22T13:52:10.956Z,99324
2017-09-22T13:54:39.024Z,99327
2017-09-22T13:57:07.100Z,99327
2017-09-22T13:59:35.180Z,99342
2017-09-22T14:02:04.023Z,99332
2017-09-22T14:04:32.873Z,99333
2017-09-22T14:07:01.703Z,99322
2017-09-22T14:09:29.788Z,99330
2017-09-22T14:11:57.863Z,99325
2017-09-22T14:14:25.940Z,99326
2017-09-22T14:16:54.012Z,99322
2017-09-22T14:19:22.108Z,99321
2017-09-22T14:21:50.180Z,99326
2017-09-22T14:24:18.253Z,99330
2017-09-22T14:26:46.339Z,99319
2017-09-22T14:29:15.184Z,99324
2017-09-22T14:31:43.272Z,99324
2017-09-22T14:34:12.163Z,99327
2017-09-22T14:36:40.235Z,99331
2017-09-22T14:39:08.321Z,99323
2017-09-22T14:41:36.397Z,99328
2017-09-22T14:44:04.471Z,99313
2017-09-22T14:46:32.544Z,99318
2017-09-22T14:49:00.626Z,99327
2017-09-22T14:51:29.465Z,99331
2017-09-22T14:53:57.547Z,99333
2017-09-22T14:56:25.619Z,99335
2017-09-22T14:58:53.691Z,99336
2017-09-22T15:01:21.761Z,99341
2017-09-22T15:03:49.851Z,99339
2017-09-22T15:06:17.929Z,99329
2017-09-22T15:08:45.999Z,99338
2017-09-22T15:11:14.070Z,99331
2017-09-22T15:13:42.166Z,99326
2017-09-22T15:16:11.004Z,99331
2017-09-22T15:18:39.095Z,99323
2017-09-22T15:21:07.159Z,99326
2017-09-22T15:23:35.232Z,99329
2017-09-22T15:26:03.309Z,99323
2017-09-22T15:28:31.396Z,99324
2017-09-22T15:30:59.479Z,99327
2017-09-22T15:33:27.563Z,99333
2017-09-22T15:35:56.408Z,99329
2017-09-22T15:38:24.523Z,99327
2017-09-22T15:40:52.604Z,99339
2017-09-22T15:43:21.456Z,99326
2017-09-22T15:45:49.551Z,99331
2017-09-22T15:48:17.626Z,99337
2017-09-22T15:50:45.708Z,99331
2017-09-22T15:53:14.538Z,99340
2017-09-22T15:55:42.632Z,99341
2017-09-22T15:58:11.535Z,99339
2017-09-22T16:00:40.251Z,99338
2017-09-22T16:03:09.091Z,99336
2017-09-22T16:05:37.929Z,99335
2017-09-22T16:08:06.772Z,99339
2017-09-22T16:10:34.855Z,99338
2017-09-22T16:13:02.945Z,99341
2017-09-22T16:15:31.018Z,99346
2017-09-22T16:17:59.096Z,99344
2017-09-22T16:20:27.176Z,99346
2017-09-22T16:22:55.234Z,99344
2017-09-22T16:25:23.320Z,99357
2017-09-22T16:27:51.384Z,99360
2017-09-22T16:30:19.472Z,99360
2017-09-22T16:32:47.551Z,99359
2017-09-22T16:35:16.400Z,99358
2017-09-22T16:37:44.472Z,99368
2017-09-22T16:40:12.560Z,99378
2017-09-22T16:42:40.656Z,99364
2017-09-22T16:45:09.511Z,99356
2017-09-22T16:47:37.595Z,99361
2017-09-22T16:50:05.693Z,99357
2017-09-22T16:52:34.529Z,99361
2017-09-22T16:55:02.620Z,99354
2017-09-22T16:57:30.747Z,99361
2017-09-22T16:59:59.605Z,99354
2017-09-22T17:02:27.679Z,99355
2017-09-22T17:04:55.759Z,99366
2017-09-22T17:07:23.842Z,99367
2017-09-22T17:09:52.700Z,99371
2017-09-22T17:12:20.791Z,99365
2017-09-22T17:14:48.871Z,99378
2017-09-22T17:17:16.951Z,99371
2017-09-22T17:19:45.807Z,99377
2017-09-22T17:22:13.900Z,99381
2017-09-22T17:24:41.979Z,99378
2017-09-22T17:27:10.072Z,99382
2017-09-22T17:29:38.925Z,99383
2017-09-22T17:32:07.012Z,99387
2017-09-22T17:34:35.080Z,99383
2017-09-22T17:37:03.172Z,99389
2017-09-22T17:39:32.012Z,99390
2017-09-22T17:42:00.104Z,99395
2017-09-22T17:44:28.189Z,99390
2017-09-22T17:46:56.273Z,99397
2017-09-22T17:49:25.120Z,99397
2017-09-22T17:51:53.276Z,99388
2017-09-22T17:54:21.590Z,99391
2017-09-22T17:56:49.728Z,99402
2017-09-22T17:59:17.804Z,99402
2017-09-22T18:01:46.674Z,99404
2017-09-22T18:04:15.508Z,99407
2017-09-22T18:06:43.582Z,99397
2017-09-22T18:09:11.671Z,99406
2017-09-22T18:11:39.747Z,99406
2017-09-22T18:14:07.828Z,99411
2017-09-22T18:16:35.903Z,99413
2017-09-22T18:19:04.759Z,99414
2017-09-22T18:21:33.602Z,99417
2017-09-22T18:24:01.699Z,99425
2017-09-22T18:26:29.771Z,99425
2017-09-22T18:28:58.619Z,99425
2017-09-22T18:31:27.481Z,99422
2017-09-22T18:33:55.592Z,99426
2017-09-22T18:36:24.432Z,99427
2017-09-22T18:38:52.527Z,99431
2017-09-22T18:41:20.652Z,99433
2017-09-22T18:43:48.749Z,99438
2017-09-22T18:46:16.839Z,99427
2017-09-22T18:48:44.940Z,99427
2017-09-22T18:51:13.018Z,99436
2017-09-22T18:53:41.875Z,99431
2017-09-22T18:56:09.984Z,99440
2017-09-22T18:58:38.829Z,99439
2017-09-22T19:01:06.920Z,99440
2017-09-22T19:03:35.004Z,99435
2017-09-22T19:06:03.096Z,99441
2017-09-22T19:08:31.944Z,99438
2017-09-22T19:11:00.044Z,99434
2017-09-22T19:13:28.127Z,99435
2017-09-22T19:15:56.979Z,99432
2017-09-22T19:18:25.071Z,99432
2017-09-22T19:20:53.164Z,99430
2017-09-22T19:23:22.022Z,99436
2017-09-22T19:25:50.151Z,99447
2017-09-22T19:28:18.282Z,99442
2017-09-22T19:30:46.376Z,99444
2017-09-22T19:33:15.233Z,99450
2017-09-22T19:35:44.351Z,99461
2017-09-22T19:38:12.428Z,99462
2017-09-22T19:40:40.520Z,99455
2017-09-22T19:43:09.361Z,99466
2017-09-22T19:45:37.948Z,99465
2017-09-22T19:48:06.083Z,99472
2017-09-22T19:50:34.165Z,99476
2017-09-22T19:53:02.255Z,99477
2017-09-22T19:55:30.333Z,99481
2017-09-22T19:57:58.412Z,99476
2017-09-22T20:00:26.484Z,99469
2017-09-22T20:02:54.572Z,99476
2017-09-22T20:05:22.650Z,99480
2017-09-22T20:07:50.730Z,99484
2017-09-22T20:10:19.590Z,99487
2017-09-22T20:12:47.690Z,99500
2017-09-22T20:15:15.766Z,99497
2017-09-22T20:17:44.623Z,99503
2017-09-22T20:20:12.695Z,99500
2017-09-22T20:22:40.788Z,99505
2017-09-22T20:25:08.873Z,99505
2017-09-22T20:27:37.763Z,99513
2017-09-22T20:30:05.847Z,99506
2017-09-22T20:32:34.696Z,99520
2017-09-22T20:35:02.787Z,99511
2017-09-22T20:37:30.988Z,99518
2017-09-22T20:39:59.109Z,99521
2017-09-22T20:42:27.192Z,99524
2017-09-22T20:44:55.338Z,99525
2017-09-22T20:47:23.712Z,99526
2017-09-22T20:49:51.842Z,99524
2017-09-22T20:52:19.971Z,99535
2017-09-22T20:54:48.107Z,99530
2017-09-22T20:57:17.135Z,99533
2017-09-22T20:59:45.334Z,99542
2017-09-22T21:02:13.552Z,99531
2017-09-22T21:04:42.445Z,99537
2017-09-22T21:07:11.403Z,99534
2017-09-22T21:09:39.591Z,99542
2017-09-22T21:12:07.680Z,99539
2017-09-22T21:14:36.717Z,99541
2017-09-22T21:17:04.808Z,99531
2017-09-22T21:19:33.017Z,99531
2017-09-22T21:22:01.237Z,99534
2017-09-22T21:24:29.317Z,99529
2017-09-22T21:26:57.453Z,99536
2017-09-22T21:29:26.298Z,99539
2017-09-22T21:31:54.394Z,99538
2017-09-22T21:34:22.600Z,99538
2017-09-22T21:36:51.518Z,99539
2017-09-22T21:39:19.646Z,99538
2017-09-22T21:41:48.551Z,99539
2017-09-22T21:44:17.450Z,99547
2017-09-22T21:46:46.491Z,99561
2017-09-22T21:49:14.619Z,99546
2017-09-22T21:51:43.477Z,99548
2017-09-22T21:54:11.572Z,99553
2017-09-22T21:56:39.698Z,99551
2017-09-22T21:59:07.868Z,99543
2017-09-22T22:01:36.771Z,99546
2017-09-22T22:07:13.264Z,99541
2017-09-22T22:09:41.476Z,99545
2017-09-22T22:12:10.413Z,99556
2017-09-22T22:14:38.823Z,99551
2017-09-22T22:17:06.943Z,99553
2017-09-22T22:19:35.031Z,99549
2017-09-22T22:22:03.146Z,99541
2017-09-22T22:24:31.220Z,99543
2017-09-22T22:26:59.304Z,99543
2017-09-22T22:29:27.385Z,99551
2017-09-22T22:31:56.241Z,99543
2017-09-22T22:34:24.324Z,99562
2017-09-22T22:37:05.119Z,99545
2017-09-22T22:39:33.979Z,99565
2017-09-22T22:42:02.073Z,99573
2017-09-22T22:44:30.147Z,99570
2017-09-22T22:46:58.227Z,99562
2017-09-22T22:49:27.086Z,99569
2017-09-22T22:51:55.167Z,99569
2017-09-22T22:54:23.243Z,99569
2017-09-22T22:56:51.340Z,99576
2017-09-22T22:59:20.192Z,99573
2017-09-22T23:01:48.279Z,99571
2017-09-22T23:04:16.364Z,99573
2017-09-22T23:06:44.446Z,99574
2017-09-22T23:09:13.300Z,99578
2017-09-22T23:11:41.392Z,99580
2017-09-22T23:14:09.471Z,99577
2017-09-22T23:16:37.563Z,99578
2017-09-22T23:19:06.412Z,99586
2017-09-22T23:21:34.514Z,99594
2017-09-22T23:24:02.596Z,99581
2017-09-22T23:26:31.435Z,99576
2017-09-22T23:28:59.518Z,99581
2017-09-22T23:31:27.612Z,99581
2017-09-22T23:33:55.692Z,99577
2017-09-22T23:36:23.772Z,99583
2017-09-22T23:38:52.628Z,99581
2017-09-22T23:41:20.707Z,99591
2017-09-22T23:43:48.791Z,99584
2017-09-22T23:46:16.880Z,99589
2017-09-22T23:48:45.740Z,99583
2017-09-22T23:51:13.811Z,99587
2017-09-22T23:53:41.903Z,99590
2017-09-22T23:56:09.983Z,99583
2017-09-22T23:58:38.067Z,99584
